Glenbrook, CT

4:00 AM EDT op 29 augustus 2014 (GMT -0400)
Waterbury Avenue | Change Station
CLOSE
Current Station
Persoonlijk weerstation
Location: Stamford, CT
Geometrische hoogte: 46 ft
Nabije weerstations

Hoogte 46 ft 41.06 °N, 73.51 °W | Updated 27 seconds ago

Helder
Helder
56.8 °F
Voelt als 56.8 °F
N
0.0
Wind Variabel Wind van west
Gusts 0.0 mijl/u

Vandaag
Hoog -- | Laag -- °F
--% Kans op neerslag
Gisteren
Hoog -- | Laag -- °F
Precip. -- inches
6:17 AM 7:31 PM
Wassende halvemaan, 12% visible
Druk 30.08 inches
Zicht 10.0 mijlen
Wolken Helder
Dauwpunt 53 °F
Vochtigheid 88%
Neerslag 0.00 inches
Dikte sneeuw Niet beschikbaar.
UV 0 van de 12
Pollen 9.10 van de 12
Ozon Goed
Flu Activity Niet beschikbaar.
METAR KHPN 290756Z 35004KT 10SM CLR 14/09 A3008 RMK AO2 SLP184 T01390094

More Conditions Fewer Conditions

Druk 30.08 inches
Zicht 10.0 mijlen
Wolken Helder
Dauwpunt 53 °F
Vochtigheid 88%
Neerslag 0.00 inches
Dikte sneeuw Niet beschikbaar.
UV 0 van de 12
Pollen 9.10 van de 12
Ozon Goed
Flu Activity Niet beschikbaar.
METAR KHPN 290756Z 35004KT 10SM CLR 14/09 A3008 RMK AO2 SLP184 T01390094

More Conditions Fewer Conditions

10-Day Weather Forecast

Almanac

Astronomie

Aug. 29, 2014 Opkomst Ondergang
Werkelijke tijd 6:17 AM EDT 7:31 PM EDT
Burgerlijke schemering 5:49 AM EDT 7:59 PM EDT
Nautische schemering 5:15 AM EDT 8:33 PM EDT
Astronomische schemering 4:39 AM EDT 9:09 PM EDT
Maan 10:06 AM EDT 9:25 PM EDT
Golflengte van het zichtbare licht 14h 10m
Daglengte
13h 13m
Tomorrow will be 2m 35s shorter.
Wassende halvemaan, 12% of the Moon is Illuminated
Vandaag
Wassende halvemaan
sep 2
Eerste kwartier
sep 8
Volle maan
sep 15
Laatste kwartier
sep 24
Nieuw

Extremen vandaag

State Highs State Lows

Community

WunderPhotos

Upload Photos

1,748,197 foto’s ge-upload!

Nearby

Luchtkwaliteit

  Luchtkwaliteit LK-index Verontreinigende stof
Gisteren Goed
OZONE
Actueel Goed
OZONE
vrijdag Goed
OZONE
vrijdag Goed
PM2.5

Dikte sneeuw

Station Depth Geometrische hoogte
Er is geen verse sneeuw gerapporteerd.

Aardbevingen

Stad Distance Mag. Time & Date
No recent earthquake activity has been reported nearby.
Minimum magnitude displayed is 2.5.

Watertemperatuur langs de kust

Plaats Temperatuur
Kings Point, NY 73.0 °F
Bridgeport, CT 73.9 °F

Nabije weerstations